createdAt,value
2022-12-13T00:01:30.177Z,97015.19
2022-12-13T00:03:57.557Z,97020.69
2022-12-13T00:06:24.499Z,97022.81
2022-12-13T00:08:52.306Z,97015.41
2022-12-13T00:11:18.943Z,97016.44
2022-12-13T00:13:48.181Z,97014.31
2022-12-13T00:16:24.914Z,97022.19
2022-12-13T00:18:56.614Z,97016.38
2022-12-13T00:21:25.046Z,97009.50
2022-12-13T00:23:51.630Z,97002.66
2022-12-13T00:26:19.611Z,96999.47
2022-12-13T00:28:49.202Z,97008.97
2022-12-13T00:34:03.043Z,97022.13
2022-12-13T00:36:29.581Z,97010.50
2022-12-13T00:39:02.302Z,97019.44
2022-12-13T00:41:30.344Z,97005.72
2022-12-13T00:43:57.254Z,97020.47
2022-12-13T00:46:23.923Z,97016.25
2022-12-13T00:48:51.815Z,97017.31
2022-12-13T00:51:18.843Z,97009.66
2022-12-13T00:53:45.669Z,97017.56
2022-12-13T00:56:13.366Z,97018.84
2022-12-13T00:58:40.195Z,97015.66
2022-12-13T01:01:07.871Z,97008.31
2022-12-13T01:03:34.471Z,97014.16
2022-12-13T01:06:14.680Z,97020.72
2022-12-13T01:08:45.866Z,97038.31
2022-12-13T01:11:12.803Z,97039.25
2022-12-13T01:13:39.960Z,97022.47
2022-12-13T01:16:08.555Z,97023.06
2022-12-13T01:18:35.343Z,97024.63
2022-12-13T01:21:01.883Z,97026.72
2022-12-13T01:23:29.068Z,97031.41
2022-12-13T01:25:55.651Z,97030.25
2022-12-13T01:28:22.341Z,97026.94
2022-12-13T01:30:55.874Z,97020.69
2022-12-13T01:33:22.718Z,97004.47
2022-12-13T01:35:49.402Z,96995.94
2022-12-13T01:38:16.418Z,97011.81
2022-12-13T01:40:44.083Z,97023.69
2022-12-13T01:43:15.231Z,97019.09
2022-12-13T01:45:42.519Z,96998.84
2022-12-13T01:48:13.082Z,96993.00
2022-12-13T01:50:41.863Z,96976.63
2022-12-13T01:53:11.515Z,96978.69
2022-12-13T01:55:41.420Z,96977.91
2022-12-13T01:58:08.762Z,96969.19
2022-12-13T02:00:35.512Z,96977.03
2022-12-13T02:03:03.006Z,96976.47
2022-12-13T02:05:43.957Z,96970.66
2022-12-13T02:08:12.568Z,96954.88
2022-12-13T02:10:39.355Z,96954.38
2022-12-13T02:13:06.027Z,96951.22
2022-12-13T02:15:43.549Z,96945.94
2022-12-13T02:18:33.211Z,96944.34
2022-12-13T02:21:17.713Z,96944.59
2022-12-13T02:23:59.455Z,96944.84
2022-12-13T02:26:41.006Z,96957.44
2022-12-13T02:29:07.547Z,96945.88
2022-12-13T02:31:45.699Z,96932.16
2022-12-13T02:34:18.550Z,96937.44
2022-12-13T02:37:00.319Z,96922.13
2022-12-13T02:39:31.017Z,96915.28
2022-12-13T02:42:01.720Z,96913.69
2022-12-13T02:44:51.303Z,96910.53
2022-12-13T02:47:22.078Z,96901.03
2022-12-13T02:49:51.348Z,96901.28
2022-12-13T02:52:22.575Z,96902.56
2022-12-13T02:54:49.378Z,96897.31
2022-12-13T02:57:29.651Z,96897.06
2022-12-13T02:59:56.876Z,96902.09
2022-12-13T03:02:31.490Z,96890.47
2022-12-13T03:05:29.223Z,96894.94
2022-12-13T03:08:14.498Z,96894.69
2022-12-13T03:10:50.726Z,96896.25
2022-12-13T03:13:38.163Z,96902.03
2022-12-13T03:16:08.302Z,96892.56
2022-12-13T03:18:35.497Z,96884.66
2022-12-13T03:21:06.195Z,96890.41
2022-12-13T03:23:33.014Z,96877.50
2022-12-13T03:26:05.304Z,96874.63
2022-12-13T03:28:31.776Z,96875.13
2022-12-13T03:30:58.403Z,96871.94
2022-12-13T03:33:24.882Z,96864.56
2022-12-13T03:35:51.677Z,96861.69
2022-12-13T03:38:21.759Z,96847.75
2022-12-13T03:40:54.396Z,96855.38
2022-12-13T03:43:22.110Z,96845.66
2022-12-13T03:45:49.545Z,96862.41
2022-12-13T03:48:22.123Z,96851.41
2022-12-13T03:50:50.377Z,96855.09
2022-12-13T03:53:23.429Z,96855.06
2022-12-13T03:56:01.519Z,96854.19
2022-12-13T03:58:35.729Z,96849.75
2022-12-13T04:01:12.030Z,96841.31
2022-12-13T04:03:39.494Z,96848.63
2022-12-13T04:06:06.751Z,96847.03
2022-12-13T04:08:34.154Z,96843.88
2022-12-13T04:11:20.698Z,96837.09
2022-12-13T04:13:48.635Z,96837.09
2022-12-13T04:16:15.144Z,96835.50
2022-12-13T04:18:41.837Z,96836.53
2022-12-13T04:21:08.294Z,96834.94
2022-12-13T04:23:34.730Z,96822.84
2022-12-13T04:26:01.522Z,96828.09
2022-12-13T04:28:27.965Z,96824.69
2022-12-13T04:30:54.425Z,96831.28
2022-12-13T04:33:24.224Z,96829.69
2022-12-13T04:35:51.134Z,96831.78
2022-12-13T04:38:17.775Z,96820.47
2022-12-13T04:40:44.261Z,96827.00
2022-12-13T04:43:10.793Z,96822.53
2022-12-13T04:45:37.418Z,96814.16
2022-12-13T04:48:04.258Z,96811.53
2022-12-13T04:50:30.741Z,96809.94
2022-12-13T04:52:57.210Z,96811.47
2022-12-13T04:55:25.683Z,96807.00
2022-12-13T04:57:52.198Z,96811.47
2022-12-13T05:00:18.758Z,96805.91
2022-12-13T05:02:45.426Z,96812.25
2022-12-13T05:05:11.947Z,96808.59
2022-12-13T05:07:42.186Z,96810.97
2022-12-13T05:10:09.870Z,96809.63
2022-12-13T05:12:36.371Z,96815.44
2022-12-13T05:15:04.204Z,96797.88
2022-12-13T05:17:31.861Z,96801.00
2022-12-13T05:19:58.439Z,96807.06
2022-12-13T05:22:24.962Z,96797.38
2022-12-13T05:24:51.429Z,96804.47
2022-12-13T05:27:24.594Z,96810.75
2022-12-13T05:30:03.834Z,96816.00
2022-12-13T05:32:43.675Z,96812.31
2022-12-13T05:35:21.968Z,96815.97
2022-12-13T05:37:53.697Z,96808.13
2022-12-13T05:40:21.784Z,96808.38
2022-12-13T05:42:48.252Z,96803.91
2022-12-13T05:45:16.234Z,96801.03
2022-12-13T05:47:43.117Z,96808.09
2022-12-13T05:50:09.726Z,96805.47
2022-12-13T05:52:36.381Z,96797.28
2022-12-13T05:55:02.925Z,96795.69
2022-12-13T05:57:29.544Z,96796.19
2022-12-13T05:59:56.031Z,96788.56
2022-12-13T06:02:22.645Z,96789.03
2022-12-13T06:04:49.306Z,96787.44
2022-12-13T06:07:15.835Z,96790.03
2022-12-13T06:09:42.438Z,96785.84
2022-12-13T06:12:31.259Z,96776.91
2022-12-13T06:15:00.958Z,96775.84
2022-12-13T06:17:35.946Z,96777.97
2022-12-13T06:20:03.350Z,96771.59
2022-12-13T06:22:49.833Z,96772.09
2022-12-13T06:25:31.170Z,96773.38
2022-12-13T06:28:01.513Z,96765.25
2022-12-13T06:30:28.759Z,96768.91
2022-12-13T06:32:55.369Z,96767.88
2022-12-13T06:35:29.464Z,96765.75
2022-12-13T06:38:00.960Z,96762.06
2022-12-13T06:40:28.358Z,96758.41
2022-12-13T06:42:55.096Z,96750.78
2022-12-13T06:45:21.959Z,96751.56
2022-12-13T06:47:48.536Z,96735.81
2022-12-13T06:50:15.233Z,96740.53
2022-12-13T06:52:41.735Z,96734.22
2022-12-13T06:55:08.490Z,96735.81
2022-12-13T06:57:35.065Z,96740.53
2022-12-13T07:00:03.640Z,96737.34
2022-12-13T07:02:30.257Z,96733.13
2022-12-13T07:04:57.022Z,96727.34
2022-12-13T07:07:25.004Z,96725.25
2022-12-13T07:09:51.860Z,96734.72
2022-12-13T07:12:19.321Z,96730.50
2022-12-13T07:14:46.748Z,96738.38
2022-12-13T07:17:13.950Z,96731.84
2022-12-13T07:20:01.252Z,96731.06
2022-12-13T07:22:27.991Z,96738.38
2022-12-13T07:24:54.454Z,96747.81
2022-12-13T07:27:20.961Z,96748.31
2022-12-13T07:29:49.402Z,96759.84
2022-12-13T07:32:16.003Z,96756.44
2022-12-13T07:34:42.522Z,96749.59
2022-12-13T07:37:09.306Z,96746.91
2022-12-13T07:40:02.594Z,96753.44
2022-12-13T07:42:30.180Z,96750.50
2022-12-13T07:44:56.639Z,96743.41
2022-12-13T07:47:25.582Z,96743.41
2022-12-13T07:49:53.954Z,96748.09
2022-12-13T07:52:20.403Z,96743.31
2022-12-13T07:54:49.167Z,96743.81
2022-12-13T07:57:15.771Z,96749.06
2022-12-13T07:59:42.241Z,96740.63
2022-12-13T08:02:13.212Z,96740.06
2022-12-13T08:04:39.910Z,96736.91
2022-12-13T08:07:07.301Z,96734.78
2022-12-13T08:09:33.765Z,96739.00
2022-12-13T08:12:01.199Z,96740.31
2022-12-13T08:14:27.848Z,96734.78
2022-12-13T08:16:55.015Z,96736.88
2022-12-13T08:19:23.314Z,96740.53
2022-12-13T08:21:57.476Z,96733.69
2022-12-13T08:24:28.178Z,96742.03
2022-12-13T08:26:55.443Z,96733.38
2022-12-13T08:29:34.244Z,96726.53
2022-12-13T08:32:06.688Z,96725.25
2022-12-13T08:34:33.321Z,96720.03
2022-12-13T08:37:01.760Z,96718.97
2022-12-13T08:39:30.325Z,96726.31
2022-12-13T08:42:01.105Z,96721.06
2022-12-13T08:44:44.302Z,96728.13
2022-12-13T08:47:10.802Z,96732.34
2022-12-13T08:49:37.281Z,96723.19
2022-12-13T08:52:05.769Z,96723.69
2022-12-13T08:54:35.358Z,96721.59
2022-12-13T08:57:03.777Z,96730.75
2022-12-13T08:59:30.286Z,96719.22
2022-12-13T09:02:01.614Z,96722.88
2022-12-13T09:04:32.347Z,96727.81
2022-12-13T09:07:01.397Z,96718.66
2022-12-13T09:09:28.959Z,96724.16
2022-12-13T09:11:59.616Z,96727.81
2022-12-13T09:14:33.552Z,96726.22
2022-12-13T09:17:03.471Z,96729.66
2022-12-13T09:19:37.501Z,96721.78
2022-12-13T09:22:06.866Z,96719.09
2022-12-13T09:24:41.661Z,96727.47
2022-12-13T09:27:27.815Z,96721.22
2022-12-13T09:29:54.910Z,96728.78
2022-12-13T09:32:23.186Z,96729.56
2022-12-13T09:34:49.711Z,96728.31
2022-12-13T09:37:22.826Z,96737.72
2022-12-13T09:39:55.193Z,96739.78
2022-12-13T09:42:30.245Z,96740.28
2022-12-13T09:45:06.777Z,96723.75
2022-12-13T09:47:50.325Z,96725.56
2022-12-13T09:50:30.445Z,96728.19
2022-12-13T09:53:11.963Z,96719.28
2022-12-13T09:55:54.375Z,96723.75
2022-12-13T09:58:37.518Z,96715.31
2022-12-13T10:01:05.417Z,96705.63
2022-12-13T10:03:31.982Z,96716.13
2022-12-13T10:06:00.037Z,96701.72
2022-12-13T10:08:38.690Z,96699.88
2022-12-13T10:11:06.278Z,96698.38
2022-12-13T10:13:48.865Z,96693.66
2022-12-13T10:16:36.459Z,96688.41
2022-12-13T10:19:29.340Z,96682.66
2022-12-13T10:22:01.601Z,96678.53
2022-12-13T10:24:37.278Z,96677.25
2022-12-13T10:27:12.120Z,96682.25
2022-12-13T10:29:56.559Z,96686.47
2022-12-13T10:32:23.105Z,96691.72
2022-12-13T10:34:51.606Z,96692.50
2022-12-13T10:37:24.125Z,96700.13
2022-12-13T10:39:52.810Z,96700.13
2022-12-13T10:42:22.507Z,96700.94
2022-12-13T10:44:49.805Z,96700.13
2022-12-13T10:47:18.487Z,96704.34
2022-12-13T10:49:58.938Z,96698.06
2022-12-13T10:52:33.910Z,96710.13
2022-12-13T10:55:03.169Z,96703.31
2022-12-13T10:57:29.783Z,96698.56
2022-12-13T10:59:56.403Z,96698.34
2022-12-13T11:02:29.191Z,96697.53
2022-12-13T11:04:56.505Z,96688.63
2022-12-13T11:07:26.286Z,96680.81
2022-12-13T11:09:53.215Z,96683.44
2022-12-13T11:12:24.482Z,96678.19
2022-12-13T11:14:55.254Z,96677.72
2022-12-13T11:17:23.819Z,96671.41
2022-12-13T11:19:52.503Z,96674.03
2022-12-13T11:22:21.194Z,96677.72
2022-12-13T11:24:51.895Z,96675.88
2022-12-13T11:27:29.131Z,96680.34
2022-12-13T11:29:58.462Z,96679.00
2022-12-13T11:32:43.774Z,96683.44
2022-12-13T11:35:20.660Z,96685.28
2022-12-13T11:37:49.938Z,96686.56
2022-12-13T11:40:21.773Z,96688.63
2022-12-13T11:42:55.849Z,96689.16
2022-12-13T11:45:26.062Z,96684.38
2022-12-13T11:48:01.683Z,96686.47
2022-12-13T11:50:35.494Z,96695.38
2022-12-13T11:53:25.550Z,96691.41
2022-12-13T11:55:58.133Z,96697.94
2022-12-13T11:59:00.975Z,96692.69
2022-12-13T12:01:22.925Z,96700.00
2022-12-13T12:03:56.764Z,96710.50
2022-12-13T12:06:29.743Z,96718.28
2022-12-13T12:08:57.662Z,96714.13
2022-12-13T12:11:39.061Z,96732.16
2022-12-13T12:14:11.062Z,96733.44
2022-12-13T12:16:43.483Z,96725.31
2022-12-13T12:19:14.951Z,96726.13
2022-12-13T12:22:19.138Z,96734.31
2022-12-13T12:24:47.781Z,96729.28
2022-12-13T12:27:33.080Z,96717.22
2022-12-13T12:30:07.574Z,96729.28
2022-12-13T12:32:43.151Z,96721.44
2022-12-13T12:35:18.693Z,96719.84
2022-12-13T12:37:45.219Z,96713.31
2022-12-13T12:41:07.185Z,96717.50
2022-12-13T12:43:32.515Z,96725.63
2022-12-13T12:45:59.431Z,96715.94
2022-12-13T12:48:55.030Z,96721.97
2022-12-13T12:51:31.634Z,96709.91
2022-12-13T12:53:58.225Z,96708.59
2022-12-13T12:56:24.760Z,96702.88
2022-12-13T12:58:51.240Z,96707.88
2022-12-13T13:01:43.294Z,96702.63
2022-12-13T13:04:12.195Z,96712.06
2022-12-13T13:06:42.239Z,96714.16
2022-12-13T13:09:10.085Z,96713.13
2022-12-13T13:11:43.034Z,96716.03
2022-12-13T13:14:30.188Z,96713.19
2022-12-13T13:16:59.675Z,96714.78
2022-12-13T13:19:32.269Z,96721.59
2022-12-13T13:22:02.092Z,96712.69
2022-12-13T13:24:30.141Z,96707.94
2022-12-13T13:26:57.921Z,96722.56
2022-12-13T13:29:27.082Z,96724.16
2022-12-13T13:32:05.733Z,96722.09
2022-12-13T13:34:33.767Z,96719.16
2022-12-13T13:37:00.804Z,96723.69
2022-12-13T13:39:33.912Z,96709.53
2022-12-13T13:42:03.214Z,96715.81
2022-12-13T13:44:34.021Z,96711.91
2022-12-13T13:47:14.978Z,96712.69
2022-12-13T13:50:02.069Z,96714.28
2022-12-13T13:52:31.842Z,96709.03
2022-12-13T13:54:58.285Z,96701.72
2022-12-13T13:58:07.515Z,96708.00
2022-12-13T14:00:49.788Z,96710.88
2022-12-13T14:03:35.776Z,96723.97
2022-12-13T14:06:28.536Z,96712.22
2022-12-13T14:09:24.005Z,96716.16
2022-12-13T14:11:50.743Z,96715.91
2022-12-13T14:14:38.771Z,96718.78
2022-12-13T14:17:24.355Z,96725.38
2022-12-13T14:20:03.068Z,96725.09
2022-12-13T14:22:40.365Z,96744.19
2022-12-13T14:25:10.368Z,96742.13
2022-12-13T14:27:42.983Z,96737.41
2022-12-13T14:30:28.571Z,96735.88
2022-12-13T14:32:56.410Z,96722.25
2022-12-13T14:35:25.350Z,96728.53
2022-12-13T14:38:00.897Z,96731.84
2022-12-13T14:40:32.488Z,96726.31
2022-12-13T14:42:59.194Z,96741.50
2022-12-13T14:45:31.695Z,96740.38
2022-12-13T14:47:59.901Z,96736.25
2022-12-13T14:50:27.495Z,96726.84
2022-12-13T14:52:54.882Z,96717.94
2022-12-13T14:55:26.099Z,96713.81
2022-12-13T14:57:58.941Z,96716.16
2022-12-13T15:00:30.325Z,96724.09
2022-12-13T15:02:58.811Z,96733.25
2022-12-13T15:05:38.461Z,96737.13
2022-12-13T15:08:10.627Z,96745.78
2022-12-13T15:10:38.295Z,96751.06
2022-12-13T15:13:06.734Z,96746.06
2022-12-13T15:15:36.515Z,96759.19
2022-12-13T15:18:24.003Z,96754.28
2022-12-13T15:20:51.278Z,96737.09
2022-12-13T15:23:26.483Z,96706.25
2022-12-13T15:26:02.998Z,96673.28
2022-12-13T15:28:32.777Z,96648.13
2022-12-13T15:31:00.465Z,96624.53
2022-12-13T15:33:33.515Z,96621.00
2022-12-13T15:36:08.002Z,96624.81
2022-12-13T15:38:35.609Z,96622.09
2022-12-13T15:41:03.117Z,96606.50
2022-12-13T15:43:33.229Z,96581.50
2022-12-13T15:46:00.042Z,96572.00
2022-12-13T15:48:32.258Z,96578.28
2022-12-13T15:51:09.559Z,96543.69
2022-12-13T15:53:36.706Z,96510.19
2022-12-13T15:56:23.191Z,96504.47
2022-12-13T15:58:52.913Z,96493.72
2022-12-13T16:01:26.726Z,96487.41
2022-12-13T16:03:53.407Z,96482.63
2022-12-13T16:06:22.278Z,96508.88
2022-12-13T16:08:53.380Z,96536.28
2022-12-13T16:11:27.738Z,96541.91
2022-12-13T16:13:58.449Z,96530.06
2022-12-13T16:16:30.235Z,96514.59
2022-12-13T16:19:00.768Z,96527.91
2022-12-13T16:21:28.510Z,96544.63
2022-12-13T16:23:55.277Z,96516.41
2022-12-13T16:26:26.491Z,96485.75
2022-12-13T16:28:53.765Z,96463.56
2022-12-13T16:31:24.253Z,96386.84
2022-12-13T16:33:52.893Z,96390.53
2022-12-13T16:36:19.487Z,96401.47
2022-12-13T16:38:45.986Z,96390.53
2022-12-13T16:41:15.315Z,96374.41
2022-12-13T16:43:52.886Z,96376.19
2022-12-13T16:47:13.270Z,96386.06
2022-12-13T16:49:15.652Z,96379.53
2022-12-13T16:51:47.873Z,96394.16
2022-12-13T16:54:16.799Z,96413.94
2022-12-13T16:56:43.655Z,96412.38
2022-12-13T16:59:28.322Z,96440.38
2022-12-13T17:01:54.902Z,96417.91
2022-12-13T17:04:22.547Z,96429.75
2022-12-13T17:06:54.867Z,96468.84
2022-12-13T17:09:22.428Z,96421.03
2022-12-13T17:11:49.118Z,96394.72
2022-12-13T17:14:15.651Z,96369.75
2022-12-13T17:16:42.902Z,96332.25
2022-12-13T17:19:12.537Z,96336.66
2022-12-13T17:21:39.021Z,96355.75
2022-12-13T17:24:05.982Z,96337.97
2022-12-13T17:26:32.429Z,96346.84
2022-12-13T17:28:58.913Z,96359.09
2022-12-13T17:31:28.133Z,96333.28
2022-12-13T17:33:59.973Z,96348.09
2022-12-13T17:36:27.016Z,96373.22
2022-12-13T17:38:53.453Z,96371.06
2022-12-13T17:41:22.103Z,96367.28
2022-12-13T17:43:48.581Z,96342.59
2022-12-13T17:46:18.700Z,96375.56
2022-12-13T17:48:50.286Z,96378.53
2022-12-13T17:51:16.933Z,96354.25
2022-12-13T17:53:44.076Z,96353.28
2022-12-13T17:56:12.281Z,96379.53
2022-12-13T17:58:39.122Z,96380.31
2022-12-13T18:01:16.077Z,96371.41
2022-12-13T18:03:42.613Z,96368.84
2022-12-13T18:06:09.458Z,96368.84
2022-12-13T18:08:36.704Z,96394.91
2022-12-13T18:13:55.300Z,96372.00
2022-12-13T18:16:24.084Z,96350.38
2022-12-13T18:18:54.768Z,96323.03
2022-12-13T18:21:22.222Z,96334.50
2022-12-13T18:23:55.588Z,96390.91
2022-12-13T18:26:23.610Z,96406.00
2022-12-13T18:28:50.150Z,96420.06
2022-12-13T18:31:18.652Z,96439.63
2022-12-13T18:33:47.808Z,96390.88
2022-12-13T18:36:15.099Z,96394.63
2022-12-13T18:38:42.331Z,96377.94
2022-12-13T18:41:11.503Z,96335.94
2022-12-13T18:43:38.240Z,96390.06
2022-12-13T18:46:05.912Z,96362.69
2022-12-13T18:48:32.587Z,96315.81
2022-12-13T18:51:00.521Z,96329.56
2022-12-13T18:53:27.808Z,96353.97
2022-12-13T18:56:00.503Z,96361.78
2022-12-13T18:58:26.938Z,96338.66
2022-12-13T19:00:53.514Z,96338.69
2022-12-13T19:03:19.978Z,96325.66
2022-12-13T19:05:46.769Z,96327.75
2022-12-13T19:08:13.209Z,96326.28
2022-12-13T19:10:39.707Z,96319.28
2022-12-13T19:13:06.168Z,96326.44
2022-12-13T19:15:34.459Z,96320.50
2022-12-13T19:18:00.938Z,96342.22
2022-12-13T19:20:27.410Z,96352.34
2022-12-13T19:22:53.920Z,96403.66
2022-12-13T19:25:20.623Z,96429.00
2022-12-13T19:27:48.751Z,96420.28
2022-12-13T19:30:17.681Z,96398.72
2022-12-13T19:32:44.112Z,96420.44
2022-12-13T19:35:14.917Z,96432.91
2022-12-13T19:37:41.448Z,96465.75
2022-12-13T19:40:09.805Z,96521.00
2022-12-13T19:42:36.199Z,96521.91
2022-12-13T19:45:03.823Z,96521.22
2022-12-13T19:47:30.382Z,96508.88
2022-12-13T19:49:56.882Z,96502.53
2022-12-13T19:52:23.431Z,96493.53
2022-12-13T19:54:49.883Z,96493.19
2022-12-13T19:57:16.805Z,96500.38
2022-12-13T19:59:43.268Z,96459.38
2022-12-13T20:02:12.513Z,96427.13
2022-12-13T20:04:39.007Z,96430.66
2022-12-13T20:07:06.345Z,96465.16
2022-12-13T20:09:33.076Z,96508.28
2022-12-13T20:11:59.695Z,96568.22
2022-12-13T20:14:26.180Z,96551.44
2022-12-13T20:16:53.542Z,96499.56
2022-12-13T20:19:22.187Z,96511.13
2022-12-13T20:21:52.327Z,96573.00
2022-12-13T20:24:23.103Z,96594.06
2022-12-13T20:26:49.595Z,96607.84
2022-12-13T20:29:16.248Z,96587.84
2022-12-13T20:31:42.860Z,96560.53
2022-12-13T20:34:15.475Z,96603.28
2022-12-13T20:36:42.391Z,96624.81
2022-12-13T20:39:09.408Z,96603.00
2022-12-13T20:41:36.550Z,96544.63
2022-12-13T20:44:04.033Z,96484.66
2022-12-13T20:46:31.381Z,96448.25
2022-12-13T20:48:58.668Z,96420.31
2022-12-13T20:51:26.241Z,96436.88
2022-12-13T20:53:53.239Z,96528.78
2022-12-13T20:56:21.363Z,96578.88
2022-12-13T20:58:48.054Z,96583.03
2022-12-13T21:01:25.435Z,96585.44
2022-12-13T21:03:55.801Z,96560.06
2022-12-13T21:06:22.391Z,96537.09
2022-12-13T21:08:51.649Z,96536.91
2022-12-13T21:11:37.562Z,96528.81
2022-12-13T21:14:10.078Z,96491.72
2022-12-13T21:16:39.770Z,96477.81
2022-12-13T21:19:06.681Z,96462.41
2022-12-13T21:21:33.177Z,96452.91
2022-12-13T21:23:59.786Z,96429.78
2022-12-13T21:26:31.498Z,96426.47
2022-12-13T21:29:02.157Z,96426.38
2022-12-13T21:31:29.119Z,96423.28
2022-12-13T21:33:58.317Z,96420.75
2022-12-13T21:36:25.918Z,96424.50
2022-12-13T21:38:53.079Z,96424.25
2022-12-13T21:41:20.106Z,96427.56
2022-12-13T21:43:48.271Z,96424.78
2022-12-13T21:46:18.961Z,96425.94
2022-12-13T21:48:46.098Z,96413.50
2022-12-13T21:51:14.113Z,96423.72
2022-12-13T21:53:40.757Z,96415.16
2022-12-13T21:56:26.854Z,96408.56
2022-12-13T21:59:12.213Z,96420.22
2022-12-13T22:02:02.818Z,96436.25
2022-12-13T22:04:29.825Z,96466.09
2022-12-13T22:06:56.334Z,96437.06
2022-12-13T22:09:22.778Z,96413.06
2022-12-13T22:11:49.233Z,96408.66
2022-12-13T22:14:17.262Z,96503.81
2022-12-13T22:16:43.771Z,96482.00
2022-12-13T22:19:12.255Z,96529.88
2022-12-13T22:21:40.890Z,96498.69
2022-12-13T22:24:08.418Z,96449.09
2022-12-13T22:26:36.265Z,96429.41
2022-12-13T22:29:03.001Z,96432.97
2022-12-13T22:31:30.032Z,96435.34
2022-12-13T22:33:59.562Z,96457.16
2022-12-13T22:36:26.182Z,96439.63
2022-12-13T22:38:52.988Z,96469.84
2022-12-13T22:41:19.455Z,96469.84
2022-12-13T22:43:45.988Z,96460.25
2022-12-13T22:46:18.626Z,96421.09
2022-12-13T22:48:45.621Z,96450.84
2022-12-13T22:51:16.177Z,96444.84
2022-12-13T22:53:43.844Z,96424.41
2022-12-13T22:56:11.695Z,96417.13
2022-12-13T22:58:39.028Z,96434.22
2022-12-13T23:01:11.717Z,96433.28
2022-12-13T23:03:39.046Z,96481.00
2022-12-13T23:06:09.293Z,96455.22
2022-12-13T23:08:40.294Z,96426.16
2022-12-13T23:11:28.709Z,96458.69
2022-12-13T23:13:56.180Z,96477.66
2022-12-13T23:16:24.476Z,96534.34
2022-12-13T23:18:57.590Z,96579.53
2022-12-13T23:21:37.356Z,96560.94
2022-12-13T23:24:04.516Z,96550.97
2022-12-13T23:26:32.016Z,96531.94
2022-12-13T23:28:59.685Z,96546.88
2022-12-13T23:31:26.923Z,96512.00
2022-12-13T23:33:53.443Z,96497.03
2022-12-13T23:36:20.978Z,96501.22
2022-12-13T23:38:47.637Z,96505.09
2022-12-13T23:41:18.050Z,96487.03
2022-12-13T23:43:48.742Z,96479.75
2022-12-13T23:46:16.950Z,96487.56
2022-12-13T23:48:43.483Z,96511.53
2022-12-13T23:51:10.844Z,96512.44
2022-12-13T23:53:37.862Z,96513.56
2022-12-13T23:56:05.265Z,96515.03
2022-12-13T23:58:31.718Z,96497.47
